createdAt,value
2018-08-30T00:02:02.913Z,14.50
2018-08-30T00:04:31.251Z,14.00
2018-08-30T00:06:59.543Z,16.75
2018-08-30T00:09:27.866Z,13.75
2018-08-30T00:11:56.939Z,16.25
2018-08-30T00:14:25.805Z,17.25
2018-08-30T00:16:54.078Z,13.75
2018-08-30T00:19:22.347Z,14.75
2018-08-30T00:21:50.619Z,15.00
2018-08-30T00:24:18.928Z,14.50
2018-08-30T00:26:47.204Z,15.00
2018-08-30T00:29:15.494Z,16.75
2018-08-30T00:31:44.737Z,19.00
2018-08-30T00:34:13.013Z,16.75
2018-08-30T00:36:41.314Z,14.00
2018-08-30T00:39:10.359Z,13.75
2018-08-30T00:41:39.605Z,18.00
2018-08-30T00:44:07.864Z,14.50
2018-08-30T00:46:36.195Z,15.75
2018-08-30T00:49:04.467Z,15.00
2018-08-30T00:51:33.746Z,14.50
2018-08-30T00:54:02.556Z,15.50
2018-08-30T00:56:30.894Z,14.25
2018-08-30T00:58:59.186Z,16.75
2018-08-30T01:01:27.927Z,14.75
2018-08-30T01:03:56.206Z,15.00
2018-08-30T01:06:24.499Z,14.00
2018-08-30T01:08:52.778Z,15.25
2018-08-30T01:11:21.047Z,14.25
2018-08-30T01:13:49.340Z,16.75
2018-08-30T01:16:17.643Z,16.25
2018-08-30T01:18:45.931Z,15.00
2018-08-30T01:21:15.146Z,12.75
2018-08-30T01:23:44.340Z,14.25
2018-08-30T01:26:12.613Z,14.75
2018-08-30T01:28:40.903Z,15.50
2018-08-30T01:31:09.166Z,14.50
2018-08-30T01:33:37.447Z,14.50
2018-08-30T01:36:05.836Z,15.00
2018-08-30T01:38:34.149Z,14.75
2018-08-30T01:41:02.487Z,17.75
2018-08-30T01:43:30.753Z,14.25
2018-08-30T01:45:59.051Z,16.75
2018-08-30T01:48:27.348Z,14.50
2018-08-30T01:50:55.612Z,14.50
2018-08-30T01:53:24.985Z,16.75
2018-08-30T01:55:53.286Z,17.50
2018-08-30T01:58:21.602Z,21.00
2018-08-30T02:00:49.903Z,21.75
2018-08-30T02:03:18.148Z,23.50
2018-08-30T02:05:47.151Z,22.25
2018-08-30T02:08:15.479Z,23.50
2018-08-30T02:10:44.778Z,20.50
2018-08-30T02:13:13.070Z,25.50
2018-08-30T02:15:42.056Z,22.50
2018-08-30T02:18:10.339Z,20.25
2018-08-30T02:20:38.632Z,21.75
2018-08-30T02:23:06.926Z,22.75
2018-08-30T02:25:35.215Z,18.50
2018-08-30T02:28:03.490Z,22.75
2018-08-30T02:30:31.775Z,21.50
2018-08-30T02:33:00.051Z,21.75
2018-08-30T02:35:28.347Z,23.25
2018-08-30T02:37:56.601Z,20.75
2018-08-30T02:40:24.903Z,20.25
2018-08-30T02:42:53.775Z,22.25
2018-08-30T02:45:22.256Z,25.25
2018-08-30T02:47:51.435Z,22.75
2018-08-30T02:50:19.716Z,21.50
2018-08-30T02:52:47.994Z,22.25
2018-08-30T02:55:16.404Z,22.25
2018-08-30T02:57:44.662Z,20.25
2018-08-30T03:00:12.954Z,21.75
2018-08-30T03:02:41.219Z,22.25
2018-08-30T03:05:10.827Z,25.50
2018-08-30T03:07:39.350Z,22.50
2018-08-30T03:10:07.655Z,19.25
2018-08-30T03:12:36.858Z,17.50
2018-08-30T03:15:11.475Z,18.25
2018-08-30T03:17:39.765Z,20.00
2018-08-30T03:20:10.774Z,18.75
2018-08-30T03:22:40.830Z,16.50
2018-08-30T03:25:09.203Z,15.75
2018-08-30T03:27:37.512Z,16.25
2018-08-30T03:30:07.699Z,15.75
2018-08-30T03:32:36.050Z,19.25
2018-08-30T03:35:04.360Z,16.50
2018-08-30T03:37:32.658Z,14.50
2018-08-30T03:40:00.982Z,15.25
2018-08-30T03:42:29.741Z,15.00
2018-08-30T03:44:58.043Z,13.50
2018-08-30T03:47:26.344Z,15.75
2018-08-30T03:49:54.645Z,11.50
2018-08-30T03:52:22.927Z,16.50
2018-08-30T03:54:53.232Z,11.75
2018-08-30T03:57:21.554Z,11.50
2018-08-30T03:59:49.843Z,15.25
2018-08-30T04:02:18.135Z,11.25
2018-08-30T04:04:46.433Z,14.00
2018-08-30T04:07:14.754Z,15.00
2018-08-30T04:09:43.010Z,15.75
2018-08-30T04:12:11.314Z,17.00
2018-08-30T04:14:39.584Z,13.00
2018-08-30T04:17:07.890Z,16.25
2018-08-30T04:19:36.186Z,16.00
2018-08-30T04:22:04.573Z,15.00
2018-08-30T04:24:33.412Z,13.00
2018-08-30T04:27:01.800Z,13.75
2018-08-30T04:29:32.539Z,12.25
2018-08-30T04:32:00.957Z,13.00
2018-08-30T04:34:29.243Z,13.25
2018-08-30T04:36:57.522Z,13.50
2018-08-30T04:39:25.810Z,14.50
2018-08-30T04:41:54.125Z,14.00
2018-08-30T04:44:23.341Z,12.75
2018-08-30T04:46:52.166Z,12.75
2018-08-30T04:49:20.478Z,9.00
2018-08-30T04:51:50.339Z,10.50
2018-08-30T04:54:26.080Z,11.00
2018-08-30T04:56:54.459Z,11.00
2018-08-30T04:59:22.839Z,10.50
2018-08-30T05:01:51.284Z,8.50
2018-08-30T05:04:19.549Z,9.50
2018-08-30T05:06:47.967Z,10.50
2018-08-30T05:09:16.316Z,9.00
2018-08-30T05:11:44.652Z,9.75
2018-08-30T05:14:12.992Z,7.50
2018-08-30T05:16:42.613Z,10.25
2018-08-30T05:19:10.924Z,8.25
2018-08-30T05:21:39.234Z,8.25
2018-08-30T05:24:07.543Z,6.50
2018-08-30T05:26:35.810Z,7.00
2018-08-30T05:29:05.429Z,8.50
2018-08-30T05:31:33.689Z,7.50
2018-08-30T05:34:02.430Z,5.50
2018-08-30T05:36:31.767Z,7.00
2018-08-30T05:39:00.628Z,8.00
2018-08-30T05:41:28.929Z,4.00
2018-08-30T05:43:57.248Z,6.00
2018-08-30T05:46:25.545Z,7.00
2018-08-30T05:48:54.685Z,5.50
2018-08-30T05:51:22.978Z,7.00
2018-08-30T05:53:51.254Z,4.50
2018-08-30T05:56:19.543Z,7.00
2018-08-30T05:58:47.843Z,5.50
2018-08-30T06:01:16.187Z,4.00
2018-08-30T06:03:45.060Z,4.00
2018-08-30T06:06:13.386Z,4.00
2018-08-30T06:08:41.712Z,4.00
2018-08-30T06:11:09.991Z,6.00
2018-08-30T06:13:38.277Z,5.00
2018-08-30T06:16:06.596Z,5.00
2018-08-30T06:18:40.897Z,3.75
2018-08-30T06:21:09.293Z,4.00
2018-08-30T06:23:37.601Z,3.50
2018-08-30T06:26:06.517Z,5.00
2018-08-30T06:28:34.826Z,4.00
2018-08-30T06:31:03.146Z,3.25
2018-08-30T06:33:31.991Z,4.00
2018-08-30T06:36:00.465Z,4.00
2018-08-30T06:38:29.071Z,4.50
2018-08-30T06:40:57.374Z,3.00
2018-08-30T06:43:25.682Z,6.00
2018-08-30T06:45:53.987Z,3.00
2018-08-30T06:48:22.278Z,3.00
2018-08-30T06:50:50.616Z,3.00
2018-08-30T06:53:19.135Z,1.00
2018-08-30T06:55:47.447Z,4.00
2018-08-30T06:58:15.787Z,1.00
2018-08-30T07:00:44.071Z,2.50
2018-08-30T07:03:12.378Z,3.00
2018-08-30T07:05:41.519Z,3.00
2018-08-30T07:08:09.864Z,3.00
2018-08-30T07:10:38.101Z,3.25
2018-08-30T07:13:06.481Z,3.25
2018-08-30T07:15:34.794Z,3.25
2018-08-30T07:18:03.918Z,1.00
2018-08-30T07:20:32.247Z,1.00
2018-08-30T07:23:00.595Z,1.00
2018-08-30T07:25:28.945Z,1.00
2018-08-30T07:27:57.936Z,1.00
2018-08-30T07:30:26.240Z,1.00
2018-08-30T07:32:54.543Z,1.00
2018-08-30T07:35:22.850Z,3.00
2018-08-30T07:37:51.884Z,0.00
2018-08-30T07:40:20.318Z,3.00
2018-08-30T07:42:48.868Z,1.00
2018-08-30T07:45:17.206Z,1.00
2018-08-30T07:47:45.496Z,1.00
2018-08-30T07:59:54.589Z,1.00
2018-08-30T08:02:22.936Z,1.00
2018-08-30T08:04:51.483Z,1.25
2018-08-30T08:07:20.203Z,1.00
2018-08-30T08:09:48.390Z,1.00
2018-08-30T08:12:18.971Z,1.00
2018-08-30T08:14:47.292Z,0.50
2018-08-30T08:17:15.640Z,1.50
2018-08-30T08:19:43.933Z,0.00
2018-08-30T08:22:12.243Z,0.25
2018-08-30T08:24:40.551Z,1.00
2018-08-30T08:27:08.959Z,1.00
2018-08-30T08:29:37.261Z,1.00
2018-08-30T08:32:05.599Z,0.75
2018-08-30T08:34:33.890Z,2.00
2018-08-30T08:37:02.222Z,1.00
2018-08-30T08:39:30.517Z,1.00
2018-08-30T08:41:59.787Z,1.00
2018-08-30T08:44:30.489Z,0.75
2018-08-30T08:46:59.575Z,1.00
2018-08-30T08:49:27.912Z,1.00
2018-08-30T08:51:56.917Z,1.00
2018-08-30T08:54:56.215Z,1.00
2018-08-30T08:57:24.575Z,1.00
2018-08-30T08:59:52.902Z,1.00
2018-08-30T09:02:22.921Z,1.00
2018-08-30T09:07:34.692Z,0.75
2018-08-30T09:12:59.998Z,1.00
2018-08-30T09:15:39.811Z,0.75
2018-08-30T09:18:15.467Z,1.00
2018-08-30T09:20:54.416Z,1.00
2018-08-30T09:23:32.176Z,1.00
2018-08-30T09:31:24.248Z,1.00
2018-08-30T09:39:37.065Z,1.00
2018-08-30T09:42:05.496Z,1.00
2018-08-30T09:44:35.353Z,0.25
2018-08-30T09:47:06.706Z,0.00
2018-08-30T09:49:43.501Z,0.50
2018-08-30T09:52:12.824Z,1.00
2018-08-30T09:54:43.565Z,1.00
2018-08-30T09:57:17.789Z,1.00
2018-08-30T09:59:51.264Z,0.00
2018-08-30T10:02:33.102Z,1.00
2018-08-30T10:05:03.924Z,0.25
2018-08-30T10:07:36.875Z,0.25
2018-08-30T10:10:06.733Z,0.00
2018-08-30T10:12:42.155Z,1.00
2018-08-30T10:17:51.527Z,1.00
2018-08-30T10:20:20.773Z,1.00
2018-08-30T10:22:55.733Z,0.75
2018-08-30T10:25:27.070Z,1.00
2018-08-30T10:27:55.351Z,1.00
2018-08-30T10:30:33.442Z,0.50
2018-08-30T10:33:19.279Z,0.00
2018-08-30T10:35:51.502Z,1.00
2018-08-30T10:38:31.464Z,1.00
2018-08-30T10:41:07.078Z,1.50
2018-08-30T10:43:42.279Z,0.75
2018-08-30T10:46:12.035Z,0.75
2018-08-30T10:48:50.104Z,1.00
2018-08-30T10:51:29.925Z,1.50
2018-08-30T10:53:59.402Z,1.00
2018-08-30T10:56:28.224Z,0.75
2018-08-30T10:58:57.239Z,1.00
2018-08-30T11:01:25.993Z,1.50
2018-08-30T11:04:05.513Z,1.00
2018-08-30T11:06:38.754Z,1.00
2018-08-30T11:09:08.205Z,0.00
2018-08-30T11:11:39.582Z,1.00
2018-08-30T11:14:09.257Z,1.00
2018-08-30T11:16:37.841Z,0.75
2018-08-30T11:19:10.229Z,0.50
2018-08-30T11:21:48.032Z,1.00
2018-08-30T11:27:10.267Z,1.00
2018-08-30T11:29:39.505Z,1.00
2018-08-30T11:32:08.227Z,1.00
2018-08-30T11:37:24.562Z,1.00
2018-08-30T11:39:53.427Z,1.00
2018-08-30T11:42:21.844Z,1.00
2018-08-30T11:44:52.134Z,1.00
2018-08-30T11:47:21.449Z,1.00
2018-08-30T11:49:54.333Z,0.50
2018-08-30T11:52:22.836Z,0.50
2018-08-30T11:54:51.367Z,1.00
2018-08-30T11:57:31.545Z,0.00
2018-08-30T12:00:01.192Z,1.00
2018-08-30T12:02:36.420Z,1.00
2018-08-30T12:05:21.834Z,0.00
2018-08-30T12:07:51.406Z,1.00
2018-08-30T12:10:19.764Z,0.25
2018-08-30T12:12:49.259Z,1.00
2018-08-30T12:15:17.616Z,1.00
2018-08-30T12:17:46.207Z,1.00
2018-08-30T12:20:14.528Z,1.00
2018-08-30T12:22:42.990Z,1.00
2018-08-30T12:25:11.326Z,1.00
2018-08-30T12:27:42.521Z,1.00
2018-08-30T12:30:11.546Z,1.00
2018-08-30T12:32:41.510Z,1.00
2018-08-30T12:35:14.132Z,1.00
2018-08-30T12:37:42.444Z,1.25
2018-08-30T12:40:10.889Z,1.00
2018-08-30T12:42:40.272Z,1.00
2018-08-30T12:45:08.685Z,1.00
2018-08-30T12:47:37.492Z,1.00
2018-08-30T12:50:06.190Z,1.00
2018-08-30T12:52:35.291Z,1.00
2018-08-30T12:55:03.673Z,1.00
2018-08-30T12:57:32.128Z,0.00
2018-08-30T13:00:01.655Z,0.00
2018-08-30T13:02:30.271Z,1.00
2018-08-30T13:05:00.797Z,1.25
2018-08-30T13:07:32.984Z,1.00
2018-08-30T13:10:01.838Z,2.00
2018-08-30T13:12:31.016Z,1.00
2018-08-30T13:14:59.630Z,1.00
2018-08-30T13:17:28.509Z,0.75
2018-08-30T13:19:56.873Z,1.00
2018-08-30T13:22:26.117Z,0.75
2018-08-30T13:24:55.661Z,1.00
2018-08-30T13:27:24.968Z,0.50
2018-08-30T13:29:53.339Z,1.00
2018-08-30T13:32:21.646Z,1.00
2018-08-30T13:34:50.049Z,1.00
2018-08-30T13:37:18.271Z,0.00
2018-08-30T13:39:46.742Z,1.25
2018-08-30T13:42:15.096Z,1.00
2018-08-30T13:44:43.925Z,1.00
2018-08-30T13:47:12.183Z,0.50
2018-08-30T13:49:41.564Z,1.00
2018-08-30T13:52:10.613Z,1.25
2018-08-30T13:54:39.086Z,1.00
2018-08-30T13:57:08.039Z,0.25
2018-08-30T13:59:37.503Z,0.50
2018-08-30T14:02:05.659Z,1.00
2018-08-30T14:04:33.895Z,0.75
2018-08-30T14:07:02.370Z,1.25
2018-08-30T14:09:30.499Z,1.00
2018-08-30T14:11:58.848Z,1.50
2018-08-30T14:14:27.075Z,1.00
2018-08-30T14:16:55.221Z,1.00
2018-08-30T14:19:23.468Z,0.00
2018-08-30T14:21:52.696Z,1.00
2018-08-30T14:24:21.131Z,1.00
2018-08-30T14:26:49.564Z,1.00
2018-08-30T14:29:17.892Z,0.00
2018-08-30T14:31:47.249Z,0.25
2018-08-30T14:34:15.619Z,1.00
2018-08-30T14:36:43.935Z,1.00
2018-08-30T14:39:12.712Z,0.25
2018-08-30T14:41:41.384Z,1.00
2018-08-30T14:44:10.576Z,0.75
2018-08-30T14:46:39.135Z,0.25
2018-08-30T14:49:07.472Z,0.00
2018-08-30T14:51:37.508Z,0.00
2018-08-30T14:54:06.019Z,1.00
2018-08-30T14:56:34.265Z,1.00
2018-08-30T14:59:03.776Z,1.00
2018-08-30T15:01:33.253Z,0.00
2018-08-30T15:04:02.401Z,1.00
2018-08-30T15:06:30.817Z,0.00
2018-08-30T15:08:59.137Z,0.00
2018-08-30T15:11:27.445Z,0.00
2018-08-30T15:13:55.723Z,0.00
2018-08-30T15:16:24.007Z,1.50
2018-08-30T15:18:52.312Z,1.75
2018-08-30T15:21:20.593Z,1.00
2018-08-30T15:23:50.509Z,0.00
2018-08-30T15:26:18.783Z,1.00
2018-08-30T15:28:47.135Z,0.00
2018-08-30T15:31:15.443Z,1.00
2018-08-30T15:33:44.558Z,1.00
2018-08-30T15:36:12.822Z,1.00
2018-08-30T15:38:41.196Z,0.00
2018-08-30T15:41:10.504Z,1.00
2018-08-30T15:43:39.919Z,0.25
2018-08-30T15:46:08.257Z,1.00
2018-08-30T15:48:37.440Z,1.00
2018-08-30T15:51:05.771Z,0.75
2018-08-30T15:53:34.076Z,0.25
2018-08-30T15:56:04.312Z,0.00
2018-08-30T15:58:32.757Z,0.75
2018-08-30T16:01:02.051Z,0.00
2018-08-30T16:03:30.842Z,0.50
2018-08-30T16:05:59.201Z,0.00
2018-08-30T16:08:27.648Z,0.00
2018-08-30T16:10:55.855Z,0.00
2018-08-30T16:13:25.498Z,0.00
2018-08-30T16:15:53.772Z,1.00
2018-08-30T16:18:22.083Z,0.00
2018-08-30T16:20:50.379Z,0.25
2018-08-30T16:23:24.677Z,1.00
2018-08-30T16:25:53.396Z,0.00
2018-08-30T16:28:22.462Z,0.75
2018-08-30T16:30:50.778Z,1.00
2018-08-30T16:33:19.100Z,0.50
2018-08-30T16:35:48.548Z,0.25
2018-08-30T16:38:16.747Z,0.00
2018-08-30T16:40:46.495Z,0.00
2018-08-30T16:43:14.798Z,0.00
2018-08-30T16:45:43.559Z,0.50
2018-08-30T16:48:11.833Z,0.00
2018-08-30T16:50:40.119Z,0.00
2018-08-30T16:53:08.425Z,0.00
2018-08-30T16:55:37.230Z,0.00
2018-08-30T16:58:05.577Z,0.00
2018-08-30T17:00:33.859Z,1.00
2018-08-30T17:03:02.484Z,0.25
2018-08-30T17:05:32.391Z,0.00
2018-08-30T17:08:00.705Z,0.25
2018-08-30T17:10:28.979Z,0.00
2018-08-30T17:12:57.883Z,1.00
2018-08-30T17:15:26.163Z,0.00
2018-08-30T17:17:54.473Z,0.25
2018-08-30T17:20:30.204Z,0.75
2018-08-30T17:22:58.487Z,0.75
2018-08-30T17:25:28.288Z,0.00
2018-08-30T17:27:57.104Z,0.00
2018-08-30T17:30:25.609Z,0.00
2018-08-30T17:32:53.879Z,0.75
2018-08-30T17:35:22.168Z,0.00
2018-08-30T17:37:51.435Z,0.00
2018-08-30T17:40:19.842Z,1.00
2018-08-30T17:42:49.288Z,1.00
2018-08-30T17:45:17.601Z,1.00
2018-08-30T17:47:45.880Z,0.00
2018-08-30T17:50:14.189Z,1.50
2018-08-30T17:52:42.471Z,0.25
2018-08-30T17:55:10.855Z,1.00
2018-08-30T17:57:40.054Z,0.50
2018-08-30T18:00:10.114Z,1.00
2018-08-30T18:02:38.443Z,0.25
2018-08-30T18:05:07.000Z,1.00
2018-08-30T18:07:35.166Z,0.25
2018-08-30T18:10:03.694Z,0.50
2018-08-30T18:12:32.658Z,1.00
2018-08-30T18:15:02.715Z,1.00
2018-08-30T18:17:31.036Z,0.00
2018-08-30T18:20:02.802Z,0.00
2018-08-30T18:22:31.172Z,0.50
2018-08-30T18:25:00.150Z,1.00
2018-08-30T18:27:28.407Z,1.00
2018-08-30T18:29:56.703Z,0.00
2018-08-30T18:32:25.002Z,1.00
2018-08-30T18:34:53.511Z,1.00
2018-08-30T18:37:22.659Z,1.00
2018-08-30T18:39:50.984Z,0.00
2018-08-30T18:42:19.347Z,1.00
2018-08-30T18:44:47.598Z,1.75
2018-08-30T18:47:15.961Z,1.00
2018-08-30T18:49:44.273Z,1.00
2018-08-30T18:52:13.592Z,2.00
2018-08-30T18:54:41.871Z,2.25
2018-08-30T18:57:10.871Z,3.50
2018-08-30T18:59:39.204Z,2.75
2018-08-30T19:02:07.519Z,5.75
2018-08-30T19:04:35.816Z,2.75
2018-08-30T19:07:04.106Z,2.75
2018-08-30T19:09:32.383Z,2.25
2018-08-30T19:12:01.692Z,1.50
2018-08-30T19:14:30.249Z,2.25
2018-08-30T19:17:04.017Z,1.50
2018-08-30T19:19:34.265Z,2.50
2018-08-30T19:22:03.605Z,2.50
2018-08-30T19:24:37.270Z,1.00
2018-08-30T19:27:05.520Z,1.50
2018-08-30T19:29:39.062Z,1.50
2018-08-30T19:32:08.264Z,2.00
2018-08-30T19:34:38.263Z,1.50
2018-08-30T19:37:07.027Z,1.00
2018-08-30T19:39:35.316Z,1.00
2018-08-30T19:42:03.595Z,1.00
2018-08-30T19:44:32.511Z,1.00
2018-08-30T19:47:01.016Z,1.00
2018-08-30T19:49:29.287Z,1.00
2018-08-30T19:51:57.515Z,1.50
2018-08-30T19:54:26.657Z,1.00
2018-08-30T19:56:54.939Z,1.50
2018-08-30T19:59:23.256Z,3.00
2018-08-30T20:01:51.532Z,2.50
2018-08-30T20:04:19.827Z,3.00
2018-08-30T20:06:48.099Z,1.00
2018-08-30T20:09:17.070Z,1.00
2018-08-30T20:11:45.436Z,1.00
2018-08-30T20:14:13.778Z,0.75
2018-08-30T20:16:42.288Z,1.00
2018-08-30T20:19:10.598Z,3.50
2018-08-30T20:21:38.912Z,1.00
2018-08-30T20:24:07.207Z,1.00
2018-08-30T20:26:35.511Z,3.00
2018-08-30T20:29:03.826Z,1.00
2018-08-30T20:31:33.786Z,2.00
2018-08-30T20:34:03.090Z,3.00
2018-08-30T20:36:31.452Z,1.00
2018-08-30T20:38:59.667Z,3.00
2018-08-30T20:41:27.943Z,3.00
2018-08-30T20:43:56.224Z,2.00
2018-08-30T20:46:26.515Z,1.00
2018-08-30T20:48:54.856Z,1.00
2018-08-30T20:51:23.131Z,1.50
2018-08-30T20:53:51.503Z,2.50
2018-08-30T20:56:20.035Z,1.00
2018-08-30T20:58:48.303Z,1.50
2018-08-30T21:01:16.615Z,1.00
2018-08-30T21:03:44.896Z,3.25
2018-08-30T21:06:14.158Z,1.00
2018-08-30T21:08:43.807Z,3.00
2018-08-30T21:11:13.350Z,1.00
2018-08-30T21:13:42.371Z,2.00
2018-08-30T21:16:10.640Z,3.00
2018-08-30T21:18:38.926Z,1.50
2018-08-30T21:21:07.299Z,3.00
2018-08-30T21:23:35.561Z,1.00
2018-08-30T21:26:03.998Z,3.00
2018-08-30T21:28:32.312Z,3.00
2018-08-30T21:31:03.835Z,2.00
2018-08-30T21:33:32.158Z,3.75
2018-08-30T21:36:00.422Z,3.75
2018-08-30T21:38:28.699Z,3.00
2018-08-30T21:40:56.976Z,1.00
2018-08-30T21:43:25.259Z,1.00
2018-08-30T21:45:54.018Z,3.00
2018-08-30T21:48:22.301Z,1.00
2018-08-30T21:50:50.905Z,2.00
2018-08-30T21:53:20.116Z,2.00
2018-08-30T21:55:49.049Z,3.00
2018-08-30T21:58:17.412Z,3.00
2018-08-30T22:00:45.807Z,2.00
2018-08-30T22:03:15.075Z,1.00
2018-08-30T22:05:43.431Z,1.00
2018-08-30T22:08:12.068Z,1.00
2018-08-30T22:10:41.532Z,1.50
2018-08-30T22:13:09.927Z,1.00
2018-08-30T22:15:39.113Z,1.50
2018-08-30T22:18:08.464Z,1.50
2018-08-30T22:20:36.782Z,3.00
2018-08-30T22:23:06.229Z,1.00
2018-08-30T22:25:34.559Z,1.00
2018-08-30T22:28:03.928Z,1.00
2018-08-30T22:30:32.316Z,1.00
2018-08-30T22:33:00.696Z,1.00
2018-08-30T22:35:29.059Z,1.00
2018-08-30T22:37:57.348Z,1.00
2018-08-30T22:40:25.750Z,3.00
2018-08-30T22:42:54.298Z,3.00
2018-08-30T22:45:23.602Z,1.50
2018-08-30T22:47:52.296Z,1.00
2018-08-30T22:50:21.414Z,1.00
2018-08-30T22:52:49.757Z,1.00
2018-08-30T22:55:18.615Z,1.00
2018-08-30T22:57:46.946Z,5.00
2018-08-30T23:00:15.304Z,1.00
2018-08-30T23:02:44.421Z,1.00
2018-08-30T23:05:12.717Z,0.75
2018-08-30T23:07:41.879Z,1.00
2018-08-30T23:10:11.189Z,2.00
2018-08-30T23:12:39.505Z,1.00
2018-08-30T23:15:07.867Z,2.50
2018-08-30T23:17:36.181Z,1.50
2018-08-30T23:20:04.605Z,1.50
2018-08-30T23:22:33.164Z,1.00
2018-08-30T23:25:02.362Z,1.00
2018-08-30T23:27:30.739Z,1.00
2018-08-30T23:29:59.743Z,1.00
2018-08-30T23:32:28.100Z,1.00
2018-08-30T23:34:56.460Z,1.50
2018-08-30T23:37:25.256Z,2.00
2018-08-30T23:39:53.664Z,1.00
2018-08-30T23:42:22.225Z,0.75
2018-08-30T23:44:50.587Z,1.00
2018-08-30T23:47:19.662Z,1.00
2018-08-30T23:49:49.000Z,1.00
2018-08-30T23:52:17.490Z,3.00
2018-08-30T23:54:46.004Z,1.00
2018-08-30T23:57:14.336Z,1.50
2018-08-30T23:59:54.717Z,1.50
